Time;durP1;ratioP1;P1;durP2;ratioP2;P2;SDS_P1;SDS_P2;PMS_P1;PMS_P2;Temp;Humidity;BMP_temperature;BMP_pressure;BME280_temperature;BME280_humidity;BME280_pressure;Samples;Min_cycle;Max_cycle;Signal;HPM_P1;HPM_P2
2021/06/21 00:00:18;;;;;;;21.15;8.07;;;26.70;69.00;;;;;;5197477;28;20049;-73
2021/06/21 00:03:06;;;;;;;32.10;9.13;;;26.60;69.00;;;;;;5199520;28;20059;-69
2021/06/21 00:05:39;;;;;;;27.93;8.57;;;26.60;69.10;;;;;;5184957;28;21212;-71
2021/06/21 00:08:11;;;;;;;27.47;9.80;;;26.60;69.20;;;;;;5198662;28;20053;-73
2021/06/21 00:10:44;;;;;;;33.80;8.95;;;26.60;69.30;;;;;;5204451;28;20052;-69
2021/06/21 00:13:17;;;;;;;21.93;7.87;;;26.60;69.30;;;;;;5198134;28;20330;-74
2021/06/21 00:15:52;;;;;;;20.75;7.95;;;26.60;69.30;;;;;;5202976;28;20052;-69
2021/06/21 00:18:24;;;;;;;21.70;8.95;;;26.60;69.40;;;;;;5188531;28;20043;-71
2021/06/21 00:20:57;;;;;;;28.33;8.43;;;26.60;69.40;;;;;;5200144;28;20520;-71
2021/06/21 00:23:29;;;;;;;21.40;8.75;;;26.60;69.40;;;;;;5180761;28;20581;-73
2021/06/21 00:26:02;;;;;;;22.50;9.05;;;26.60;69.40;;;;;;5186119;28;20040;-69
2021/06/21 00:28:35;;;;;;;32.87;8.90;;;26.50;69.40;;;;;;5199446;28;20087;-72
2021/06/21 00:31:07;;;;;;;19.97;8.50;;;26.50;69.40;;;;;;5198783;28;20049;-71
2021/06/21 00:33:40;;;;;;;25.00;8.45;;;26.60;69.40;;;;;;5200949;28;20041;-71
2021/06/21 00:36:12;;;;;;;22.80;8.68;;;26.50;69.40;;;;;;5200649;28;20057;-71
2021/06/21 00:38:45;;;;;;;29.33;8.27;;;26.50;69.40;;;;;;5202618;28;20064;-70
2021/06/21 00:41:17;;;;;;;22.05;7.90;;;26.50;69.40;;;;;;5205811;28;20505;-70
2021/06/21 00:43:50;;;;;;;33.45;8.68;;;26.50;69.50;;;;;;5191171;28;20060;-69
2021/06/21 00:46:24;;;;;;;29.63;8.60;;;26.50;69.50;;;;;;5202993;28;20418;-69
2021/06/21 00:48:57;;;;;;;22.33;7.88;;;26.50;69.50;;;;;;5200852;28;20071;-72
2021/06/21 00:51:30;;;;;;;21.48;7.63;;;26.50;69.50;;;;;;5204239;28;20052;-69
2021/06/21 00:54:03;;;;;;;27.50;8.43;;;26.50;69.50;;;;;;5202922;28;20042;-72
2021/06/21 00:56:36;;;;;;;23.92;7.97;;;26.50;69.50;;;;;;5179651;28;20041;-73
2021/06/21 00:59:09;;;;;;;22.63;7.70;;;26.40;69.50;;;;;;5201298;28;20409;-72
2021/06/21 01:01:41;;;;;;;23.48;8.15;;;26.40;69.50;;;;;;5198392;28;20056;-69
2021/06/21 01:04:14;;;;;;;24.10;7.50;;;26.40;69.60;;;;;;5193804;28;20061;-72
2021/06/21 01:06:46;;;;;;;25.35;8.23;;;26.40;69.50;;;;;;5198777;28;20045;-72
2021/06/21 01:09:19;;;;;;;22.80;8.82;;;26.40;69.50;;;;;;5201263;28;20063;-70
2021/06/21 01:12:04;;;;;;;;;;;26.40;69.50;;;;;;5204189;28;20064;-69
2021/06/21 01:14:45;;;;;;;18.58;7.40;;;26.30;69.60;;;;;;5204429;28;19929;-70
2021/06/21 01:17:31;;;;;;;27.45;8.75;;;26.30;69.60;;;;;;5200105;28;20056;-71
2021/06/21 01:20:25;;;;;;;22.33;7.80;;;26.30;69.60;;;;;;5201837;28;20053;-73
2021/06/21 01:23:04;;;;;;;;;;;26.30;69.70;;;;;;5201477;28;20045;-73
2021/06/21 01:25:43;;;;;;;20.15;7.30;;;26.30;69.70;;;;;;5199592;28;19929;-71
2021/06/21 01:28:55;;;;;;;19.13;7.13;;;26.30;69.60;;;;;;5203912;28;20060;-70
2021/06/21 01:32:12;;;;;;;25.60;7.65;;;26.30;69.60;;;;;;5213054;28;20532;-74
2021/06/21 01:34:47;;;;;;;25.02;8.40;;;26.30;69.60;;;;;;5212231;28;20060;-73
2021/06/21 01:37:22;;;;;;;23.75;8.25;;;26.20;69.60;;;;;;5201271;28;20052;-71
2021/06/21 01:39:58;;;;;;;26.42;7.45;;;26.20;69.50;;;;;;5210540;28;20052;-70
2021/06/21 01:42:31;;;;;;;17.65;7.75;;;26.20;69.50;;;;;;5211256;28;20072;-70
2021/06/21 01:45:07;;;;;;;21.20;7.55;;;26.20;69.50;;;;;;5208709;28;20497;-71
2021/06/21 01:47:42;;;;;;;22.10;7.60;;;26.20;69.40;;;;;;5209506;28;20524;-70
2021/06/21 01:50:23;;;;;;;17.63;7.47;;;26.20;69.40;;;;;;5208140;28;20060;-71
2021/06/21 01:53:14;;;;;;;20.98;7.47;;;26.20;69.30;;;;;;5204979;28;20053;-71
2021/06/21 01:55:59;;;;;;;22.35;7.05;;;26.20;69.40;;;;;;5208847;28;20052;-70
2021/06/21 01:58:34;;;;;;;20.70;6.78;;;26.10;69.40;;;;;;5208962;28;20053;-72
2021/06/21 02:01:17;;;;;;;22.65;7.25;;;26.20;69.50;;;;;;5206761;28;20045;-73
2021/06/21 02:03:55;;;;;;;26.38;7.82;;;26.10;69.50;;;;;;5212152;28;20548;-69
2021/06/21 02:06:32;;;;;;;20.58;7.38;;;26.10;69.50;;;;;;5203155;28;20076;-73
2021/06/21 02:09:08;;;;;;;20.17;7.70;;;26.10;69.60;;;;;;5189372;28;20049;-70
2021/06/21 02:11:40;;;;;;;21.38;7.10;;;26.10;69.60;;;;;;5212814;28;21397;-70
2021/06/21 02:14:13;;;;;;;23.42;7.22;;;26.10;69.60;;;;;;5203330;28;20046;-69
2021/06/21 02:16:47;;;;;;;19.60;7.18;;;26.10;69.70;;;;;;5209487;28;20044;-69
2021/06/21 02:19:23;;;;;;;19.58;7.30;;;26.10;69.70;;;;;;5209894;28;20053;-70
2021/06/21 02:21:57;;;;;;;25.13;7.53;;;26.10;69.70;;;;;;5208410;28;20051;-70
2021/06/21 02:24:30;;;;;;;23.98;7.43;;;26.10;69.80;;;;;;5201281;28;20166;-71
2021/06/21 02:27:05;;;;;;;18.42;7.50;;;26.10;69.80;;;;;;5203649;28;20513;-69
2021/06/21 02:29:38;;;;;;;29.63;9.35;;;26.10;69.80;;;;;;5205769;28;20141;-72
2021/06/21 02:32:11;;;;;;;;;;;26.10;69.90;;;;;;5202188;28;20501;-70
2021/06/21 02:34:43;;;;;;;22.50;6.97;;;26.00;69.90;;;;;;5189034;28;24983;-68
2021/06/21 02:37:16;;;;;;;19.33;7.87;;;26.00;69.90;;;;;;5210871;28;26272;-69
2021/06/21 02:39:49;;;;;;;18.13;7.18;;;26.00;70.00;;;;;;5212464;28;20057;-68
2021/06/21 02:42:22;;;;;;;20.17;7.45;;;26.00;70.00;;;;;;5208637;28;20048;-70
2021/06/21 02:44:54;;;;;;;23.05;7.63;;;26.00;70.00;;;;;;5209474;28;20048;-69
2021/06/21 02:47:27;;;;;;;16.33;6.47;;;26.00;70.00;;;;;;5213414;28;20057;-69
2021/06/21 02:50:00;;;;;;;19.60;7.13;;;26.00;70.00;;;;;;5208688;28;20451;-69
2021/06/21 02:53:02;;;;;;;21.48;7.72;;;26.00;70.00;;;;;;5206006;28;20332;-71
2021/06/21 02:56:05;;;;;;;20.08;6.60;;;26.00;70.00;;;;;;5208113;28;20060;-69
2021/06/21 02:58:42;;;;;;;23.95;7.13;;;26.00;70.00;;;;;;5206880;28;20049;-70
2021/06/21 03:01:16;;;;;;;19.30;6.93;;;26.00;70.10;;;;;;5195524;28;20045;-69
2021/06/21 03:03:53;;;;;;;23.15;7.55;;;26.00;70.10;;;;;;5209353;28;20819;-70
2021/06/21 03:06:28;;;;;;;27.25;8.02;;;25.90;70.10;;;;;;5178485;28;20045;-74
2021/06/21 03:09:02;;;;;;;19.42;7.03;;;25.90;70.10;;;;;;5189931;28;20685;-70
2021/06/21 03:11:35;;;;;;;;;;;25.90;70.10;;;;;;5205632;28;20060;-71
2021/06/21 03:14:07;;;;;;;23.13;7.10;;;25.90;70.20;;;;;;5206729;28;22089;-70
2021/06/21 03:16:42;;;;;;;20.00;7.25;;;25.90;70.10;;;;;;5205894;28;20057;-70
2021/06/21 03:19:15;;;;;;;18.42;7.18;;;25.90;70.10;;;;;;5213354;28;20166;-70
2021/06/21 03:21:48;;;;;;;16.45;6.97;;;25.90;70.20;;;;;;5212225;28;20064;-70
2021/06/21 03:24:24;;;;;;;18.70;7.47;;;25.90;70.30;;;;;;5207690;28;20269;-67
2021/06/21 03:26:57;;;;;;;20.13;7.22;;;25.90;70.20;;;;;;5199021;28;20060;-68
2021/06/21 03:29:30;;;;;;;24.48;7.47;;;25.90;70.20;;;;;;5205263;28;20559;-72
2021/06/21 03:32:31;;;;;;;23.80;6.67;;;25.90;70.30;;;;;;5210700;28;20528;-71
2021/06/21 03:35:08;;;;;;;16.45;6.88;;;25.90;70.20;;;;;;5205508;28;20141;-74
2021/06/21 03:37:41;;;;;;;27.10;7.15;;;25.90;70.20;;;;;;5203587;28;20131;-70
2021/06/21 03:40:14;;;;;;;17.42;5.97;;;25.90;70.20;;;;;;5205265;28;20088;-70
2021/06/21 03:42:46;;;;;;;17.90;6.25;;;25.90;70.10;;;;;;5206038;28;20120;-74
2021/06/21 03:45:19;;;;;;;18.38;6.70;;;25.90;70.10;;;;;;5205392;28;20052;-73
2021/06/21 03:47:52;;;;;;;18.15;6.80;;;26.00;70.10;;;;;;5205978;28;20048;-72
2021/06/21 03:50:25;;;;;;;15.00;5.85;;;26.00;70.00;;;;;;5198119;28;20061;-73
2021/06/21 03:52:57;;;;;;;15.75;5.95;;;26.10;70.00;;;;;;5205238;28;20592;-73
2021/06/21 03:55:29;;;;;;;19.58;7.15;;;26.10;70.00;;;;;;5206638;28;20128;-71
2021/06/21 03:58:03;;;;;;;16.73;6.38;;;26.10;69.90;;;;;;5202897;28;20052;-71
2021/06/21 04:00:37;;;;;;;17.40;6.03;;;26.10;69.80;;;;;;5200670;28;20048;-71
2021/06/21 04:03:14;;;;;;;18.67;5.88;;;26.10;69.80;;;;;;5201795;28;20045;-70
2021/06/21 04:05:46;;;;;;;14.88;7.03;;;26.20;69.80;;;;;;5202440;28;20053;-70
2021/06/21 04:08:20;;;;;;;20.73;6.70;;;26.20;69.70;;;;;;5207004;28;20755;-73
2021/06/21 04:10:52;;;;;;;;;;;26.20;69.70;;;;;;5197768;28;20068;-71
2021/06/21 04:13:26;;;;;;;15.25;5.82;;;26.20;69.70;;;;;;5182121;28;19924;-70
2021/06/21 04:15:59;;;;;;;21.17;6.50;;;26.20;69.70;;;;;;5192191;28;20060;-71
2021/06/21 04:18:31;;;;;;;18.13;6.32;;;26.20;69.70;;;;;;5195523;28;20054;-70
2021/06/21 04:21:04;;;;;;;14.52;5.65;;;26.30;69.70;;;;;;5197210;28;20227;-72
2021/06/21 04:23:36;;;;;;;17.87;6.13;;;26.30;69.70;;;;;;5196348;28;20425;-73
2021/06/21 04:26:09;;;;;;;24.13;6.35;;;26.30;69.70;;;;;;5194511;28;20063;-69
2021/06/21 04:28:41;;;;;;;21.33;5.72;;;26.30;69.70;;;;;;5185612;28;20052;-70
2021/06/21 04:31:17;;;;;;;17.40;5.43;;;26.30;69.60;;;;;;5200452;28;20088;-72
2021/06/21 04:33:50;;;;;;;14.43;5.60;;;26.30;69.70;;;;;;5194426;28;20061;-71
2021/06/21 04:36:23;;;;;;;18.38;6.30;;;26.30;69.70;;;;;;5197011;28;20612;-69
2021/06/21 04:38:55;;;;;;;21.05;6.32;;;26.30;69.70;;;;;;5188251;28;20049;-74
2021/06/21 04:41:28;;;;;;;14.67;5.13;;;26.30;69.60;;;;;;5185258;28;20057;-75
2021/06/21 04:44:00;;;;;;;16.40;6.17;;;26.30;69.60;;;;;;5185504;28;20322;-74
2021/06/21 04:46:34;;;;;;;16.07;5.87;;;26.30;69.60;;;;;;5195235;28;20441;-75
2021/06/21 04:49:12;;;;;;;19.45;6.35;;;26.30;69.50;;;;;;5181661;28;20052;-72
2021/06/21 04:51:45;;;;;;;17.10;5.88;;;26.30;69.50;;;;;;5162560;28;20045;-72
2021/06/21 04:54:18;;;;;;;14.27;5.63;;;26.30;69.50;;;;;;5189095;28;20373;-70
2021/06/21 04:56:51;;;;;;;20.77;5.78;;;26.40;69.50;;;;;;5208330;28;20656;-70
2021/06/21 04:59:23;;;;;;;16.85;6.05;;;26.30;69.40;;;;;;5181311;28;20053;-74
2021/06/21 05:01:56;;;;;;;23.17;6.53;;;26.40;69.50;;;;;;5182936;28;20441;-75
2021/06/21 05:04:28;;;;;;;16.00;5.27;;;26.40;69.50;;;;;;5166623;28;20146;-74
2021/06/21 05:07:03;;;;;;;16.30;5.18;;;26.40;69.40;;;;;;5187734;28;20480;-73
2021/06/21 05:09:35;;;;;;;15.27;5.45;;;26.40;69.40;;;;;;5186961;28;20079;-73
2021/06/21 05:12:09;;;;;;;31.65;5.80;;;26.40;69.40;;;;;;5176170;28;20057;-75
2021/06/21 05:14:42;;;;;;;26.95;6.20;;;26.40;68.20;;;;;;5175608;28;20061;-72
2021/06/21 05:17:15;;;;;;;;;;;26.30;67.90;;;;;;5181583;28;20049;-70
2021/06/21 05:19:47;;;;;;;24.27;5.10;;;26.30;67.80;;;;;;5183772;28;19925;-70
2021/06/21 05:22:20;;;;;;;18.33;4.40;;;26.30;67.30;;;;;;5194831;28;20052;-70
2021/06/21 05:24:54;;;;;;;19.10;5.15;;;26.30;67.00;;;;;;5183471;28;20290;-72
2021/06/21 05:27:29;;;;;;;18.73;4.10;;;26.30;66.90;;;;;;5189929;28;20057;-71
2021/06/21 05:30:04;;;;;;;20.02;5.13;;;26.30;66.80;;;;;;5182447;28;22679;-72
2021/06/21 05:32:36;;;;;;;16.48;4.35;;;26.30;66.60;;;;;;5176947;28;20634;-69
2021/06/21 05:35:11;;;;;;;27.03;5.23;;;26.20;66.20;;;;;;5171856;28;20053;-66
2021/06/21 05:37:49;;;;;;;18.88;4.53;;;26.10;66.30;;;;;;5190295;28;20513;-71
2021/06/21 05:40:22;;;;;;;28.10;5.47;;;26.20;66.60;;;;;;5184382;28;20045;-69
2021/06/21 05:42:54;;;;;;;30.58;5.13;;;26.20;66.70;;;;;;5181732;28;20052;-68
2021/06/21 05:45:27;;;;;;;32.63;5.70;;;26.20;66.90;;;;;;5190278;28;20053;-69
2021/06/21 05:47:59;;;;;;;27.80;5.93;;;26.20;66.90;;;;;;5190827;28;20517;-69
2021/06/21 05:50:32;;;;;;;37.70;6.07;;;26.20;67.00;;;;;;5191710;28;20064;-68
2021/06/21 05:53:05;;;;;;;21.23;4.87;;;26.20;67.00;;;;;;5193616;28;20075;-68
2021/06/21 05:55:37;;;;;;;35.57;6.17;;;26.30;67.00;;;;;;5186047;28;20517;-69
2021/06/21 05:58:10;;;;;;;30.27;5.57;;;26.30;66.90;;;;;;5187620;28;20048;-70
2021/06/21 06:00:42;;;;;;;29.47;4.90;;;26.30;67.00;;;;;;5174065;28;20044;-71
2021/06/21 06:03:15;;;;;;;26.70;5.57;;;26.20;66.50;;;;;;5190502;28;20057;-68
2021/06/21 06:05:47;;;;;;;26.73;4.87;;;26.30;66.20;;;;;;5195964;28;20054;-68
2021/06/21 06:08:20;;;;;;;27.02;4.68;;;26.30;66.10;;;;;;5192314;28;20056;-69
2021/06/21 06:10:53;;;;;;;23.45;4.75;;;26.30;65.90;;;;;;5192332;28;20053;-71
2021/06/21 06:13:25;;;;;;;26.88;4.78;;;26.30;65.90;;;;;;5205053;28;20057;-71
2021/06/21 06:15:58;;;;;;;25.25;5.35;;;26.30;66.10;;;;;;5200499;28;20053;-71
2021/06/21 06:18:30;;;;;;;24.53;4.90;;;26.20;66.00;;;;;;5203451;28;20064;-70
2021/06/21 06:21:03;;;;;;;23.88;5.05;;;26.20;66.20;;;;;;5205988;28;20212;-69
2021/06/21 06:23:43;;;;;;;27.45;3.88;;;26.30;66.20;;;;;;5199813;28;20501;-69
2021/06/21 06:26:15;;;;;;;18.90;4.03;;;26.30;66.00;;;;;;5205070;28;20068;-71
2021/06/21 06:28:48;;;;;;;20.45;3.97;;;26.30;65.80;;;;;;5208554;28;20057;-69
2021/06/21 06:31:21;;;;;;;20.85;3.70;;;26.30;65.70;;;;;;5194671;28;20053;-69
2021/06/21 06:33:54;;;;;;;;;;;26.30;65.70;;;;;;5202661;28;20052;-68
2021/06/21 06:36:26;;;;;;;21.45;3.72;;;26.20;65.70;;;;;;5194955;28;19921;-70
2021/06/21 06:38:59;;;;;;;16.90;3.90;;;26.30;66.10;;;;;;5201011;28;20053;-70
2021/06/21 06:41:31;;;;;;;19.60;4.83;;;26.30;66.40;;;;;;5208507;28;20512;-69
2021/06/21 06:44:04;;;;;;;14.07;3.67;;;26.30;66.50;;;;;;5205392;28;20053;-69
2021/06/21 06:46:37;;;;;;;18.98;3.42;;;26.30;66.70;;;;;;5197670;28;20429;-70
2021/06/21 06:49:13;;;;;;;14.07;3.53;;;26.30;66.60;;;;;;5204982;28;20049;-69
2021/06/21 06:51:47;;;;;;;12.45;4.35;;;26.30;66.60;;;;;;5191816;28;20049;-69
2021/06/21 06:54:23;;;;;;;13.48;3.25;;;26.30;66.60;;;;;;5199025;28;20061;-68
2021/06/21 06:57:01;;;;;;;18.17;3.75;;;26.30;66.40;;;;;;5194510;28;20510;-68
2021/06/21 06:59:36;;;;;;;18.45;3.67;;;26.30;66.30;;;;;;5197341;28;20045;-70
2021/06/21 07:02:22;;;;;;;19.58;3.53;;;26.40;66.40;;;;;;5204638;28;20217;-70
2021/06/21 07:04:54;;;;;;;13.18;3.97;;;26.40;66.40;;;;;;5203902;28;20057;-70
2021/06/21 07:07:27;;;;;;;9.73;3.57;;;26.40;66.40;;;;;;5203318;28;20067;-69
2021/06/21 07:09:59;;;;;;;11.50;3.20;;;26.40;66.30;;;;;;5202649;28;20854;-68
2021/06/21 07:12:32;;;;;;;12.20;3.77;;;26.50;66.40;;;;;;5197770;28;20052;-70
2021/06/21 07:15:06;;;;;;;14.80;3.55;;;26.40;66.20;;;;;;5202302;28;20068;-71
2021/06/21 07:17:38;;;;;;;16.45;3.47;;;26.50;66.20;;;;;;5198933;28;20394;-69
2021/06/21 07:20:12;;;;;;;13.53;2.77;;;26.50;66.80;;;;;;5196335;28;20036;-73
2021/06/21 07:22:44;;;;;;;13.77;3.10;;;26.50;66.10;;;;;;5203953;28;20041;-70
2021/06/21 07:25:17;;;;;;;12.75;3.03;;;26.50;66.10;;;;;;5206646;28;20532;-69
2021/06/21 07:27:50;;;;;;;14.02;3.28;;;26.50;66.00;;;;;;5207683;28;20436;-70
2021/06/21 07:30:24;;;;;;;10.55;3.28;;;26.50;66.00;;;;;;5208333;28;20049;-71
2021/06/21 07:32:56;;;;;;;10.32;3.08;;;26.50;65.90;;;;;;5211384;28;20584;-69
2021/06/21 07:35:29;;;;;;;14.73;3.40;;;26.50;65.90;;;;;;5207536;28;20071;-72
2021/06/21 07:38:02;;;;;;;10.00;2.65;;;26.50;65.80;;;;;;5211105;28;20409;-69
2021/06/21 07:40:37;;;;;;;11.73;2.90;;;26.60;65.90;;;;;;5210761;28;20497;-69
2021/06/21 07:43:09;;;;;;;11.40;3.33;;;26.60;65.80;;;;;;5207805;28;20052;-68
2021/06/21 07:45:43;;;;;;;10.23;2.57;;;26.60;65.80;;;;;;5210511;28;20052;-72
2021/06/21 07:48:15;;;;;;;14.30;3.00;;;26.60;65.80;;;;;;5201337;28;20421;-69
2021/06/21 07:50:51;;;;;;;9.05;2.78;;;26.60;65.80;;;;;;5204356;28;20060;-68
2021/06/21 07:53:24;;;;;;;;;;;26.60;65.70;;;;;;5202874;28;20053;-71
2021/06/21 07:55:56;;;;;;;12.82;3.40;;;26.60;65.70;;;;;;5204790;28;19928;-69
2021/06/21 07:58:29;;;;;;;14.45;3.15;;;26.60;65.70;;;;;;5200894;28;20048;-72
2021/06/21 08:01:01;;;;;;;9.20;3.30;;;26.60;65.70;;;;;;5202333;28;20045;-68
2021/06/21 08:03:34;;;;;;;11.57;2.80;;;26.60;65.70;;;;;;5208054;28;20049;-70
2021/06/21 08:06:10;;;;;;;9.90;2.73;;;26.60;65.70;;;;;;5201279;28;20056;-71
2021/06/21 08:08:43;;;;;;;11.05;2.20;;;26.60;65.70;;;;;;5204909;28;20528;-69
2021/06/21 08:11:15;;;;;;;6.85;2.90;;;26.60;65.70;;;;;;5196808;28;20048;-68
2021/06/21 08:14:00;;;;;;;11.10;3.05;;;26.60;65.60;;;;;;5198092;28;20480;-69
2021/06/21 08:16:33;;;;;;;8.93;2.83;;;26.60;65.60;;;;;;5204397;28;20053;-70
2021/06/21 08:19:06;;;;;;;10.10;3.08;;;26.60;65.60;;;;;;5209509;28;20049;-69
2021/06/21 08:21:38;;;;;;;7.93;3.35;;;26.60;65.60;;;;;;5195483;28;20516;-71
2021/06/21 08:24:11;;;;;;;14.68;3.08;;;26.70;65.70;;;;;;5201154;28;20049;-68
2021/06/21 08:26:43;;;;;;;6.50;2.40;;;26.70;65.70;;;;;;5201139;28;20497;-68
2021/06/21 08:29:16;;;;;;;6.38;2.53;;;26.70;65.60;;;;;;5208406;28;21089;-71
2021/06/21 08:31:48;;;;;;;5.85;2.60;;;26.70;65.70;;;;;;5200553;28;20065;-72
2021/06/21 08:34:21;;;;;;;9.90;2.55;;;26.70;65.60;;;;;;5203648;28;20103;-68
2021/06/21 08:36:54;;;;;;;6.80;2.73;;;26.70;65.50;;;;;;5199787;28;21377;-71
2021/06/21 08:39:26;;;;;;;11.27;3.13;;;26.70;65.50;;;;;;5200282;28;20048;-69
2021/06/21 08:41:59;;;;;;;13.77;3.00;;;26.70;65.50;;;;;;5201247;28;20044;-70
2021/06/21 08:44:35;;;;;;;10.60;2.93;;;26.70;65.50;;;;;;5199786;28;20041;-69
2021/06/21 08:47:13;;;;;;;9.40;2.72;;;26.70;65.40;;;;;;5208856;28;20334;-69
2021/06/21 08:49:48;;;;;;;7.40;2.20;;;26.70;65.30;;;;;;5194440;28;20059;-72
2021/06/21 08:52:24;;;;;;;7.75;2.55;;;26.70;65.30;;;;;;5202938;28;20425;-69
2021/06/21 08:55:03;;;;;;;9.73;2.30;;;26.70;65.20;;;;;;5200293;28;20053;-70
2021/06/21 08:57:39;;;;;;;10.55;2.10;;;26.70;65.10;;;;;;5198215;28;20053;-68
2021/06/21 09:00:14;;;;;;;8.70;2.47;;;26.70;65.10;;;;;;5199225;28;20067;-71
2021/06/21 09:02:48;;;;;;;6.18;2.47;;;26.70;65.70;;;;;;5194721;28;20056;-69
2021/06/21 09:05:20;;;;;;;13.32;3.05;;;26.70;65.00;;;;;;5202384;28;20056;-70
2021/06/21 09:08:04;;;;;;;6.03;2.60;;;26.70;65.00;;;;;;5198056;28;20061;-70
2021/06/21 09:10:40;;;;;;;6.18;2.30;;;26.70;64.90;;;;;;5191111;28;20421;-71
2021/06/21 09:13:15;;;;;;;9.10;2.33;;;26.70;65.00;;;;;;5198283;28;20065;-73
2021/06/21 09:15:53;;;;;;;7.93;2.22;;;26.70;65.00;;;;;;5193216;28;20080;-71
2021/06/21 09:18:35;;;;;;;8.80;2.88;;;26.70;64.90;;;;;;5186591;28;20806;-69
2021/06/21 09:21:26;;;;;;;6.70;2.80;;;26.70;64.90;;;;;;5187256;28;20229;-69
2021/06/21 09:24:22;;;;;;;21.15;3.88;;;26.70;64.80;;;;;;5192266;28;20068;-70
2021/06/21 09:27:00;;;;;;;25.63;3.67;;;26.80;65.30;;;;;;5177286;28;20068;-70
2021/06/21 09:29:37;;;;;;;16.38;3.20;;;26.80;65.40;;;;;;5197166;28;20060;-69
2021/06/21 09:32:43;;;;;;;17.20;3.33;;;26.70;65.30;;;;;;5199237;28;20056;-68
2021/06/21 09:35:31;;;;;;;12.10;3.10;;;26.80;65.40;;;;;;5194507;28;20041;-75
2021/06/21 09:38:10;;;;;;;12.15;2.75;;;26.80;65.40;;;;;;5199838;28;20045;-71
2021/06/21 09:40:50;;;;;;;6.70;3.22;;;26.80;66.00;;;;;;5202855;28;20045;-70
2021/06/21 09:43:25;;;;;;;19.73;3.45;;;26.80;65.30;;;;;;5202425;28;20045;-71
2021/06/21 09:46:13;;;;;;;14.60;2.88;;;26.80;65.30;;;;;;5201763;28;20056;-72
2021/06/21 09:48:49;;;;;;;20.58;3.88;;;26.80;65.30;;;;;;5199484;28;20060;-73
2021/06/21 09:51:35;;;;;;;10.48;2.38;;;26.80;65.40;;;;;;5201368;28;20725;-71
2021/06/21 09:54:11;;;;;;;11.48;2.90;;;26.80;65.30;;;;;;5199943;28;20064;-73
2021/06/21 09:56:48;;;;;;;12.38;2.60;;;26.80;65.30;;;;;;5196432;28;20057;-71
2021/06/21 09:59:34;;;;;;;14.75;2.80;;;26.80;65.30;;;;;;5210286;28;20533;-73
2021/06/21 10:02:16;;;;;;;13.45;2.70;;;26.80;65.30;;;;;;5207212;28;20056;-71
2021/06/21 10:04:49;;;;;;;10.38;2.70;;;26.80;65.30;;;;;;5207867;28;20080;-70
2021/06/21 10:07:28;;;;;;;7.97;2.87;;;26.80;65.30;;;;;;5213337;28;20059;-71
2021/06/21 10:10:08;;;;;;;12.68;3.53;;;26.80;65.30;;;;;;5210546;28;20053;-69
2021/06/21 10:12:41;;;;;;;8.55;2.30;;;26.80;65.30;;;;;;5210136;28;20045;-69
2021/06/21 10:15:14;;;;;;;13.30;3.00;;;26.80;65.30;;;;;;5205950;28;20048;-69
2021/06/21 10:17:47;;;;;;;;;;;26.80;66.00;;;;;;5212281;28;20057;-69
2021/06/21 10:20:19;;;;;;;10.23;2.60;;;26.80;65.40;;;;;;5213575;28;19921;-68
2021/06/21 10:22:54;;;;;;;;;;;26.80;65.40;;;;;;5214420;28;20053;-69
2021/06/21 10:25:26;;;;;;;7.97;2.70;;;26.80;65.40;;;;;;5214287;28;19928;-69
2021/06/21 10:28:01;;;;;;;5.67;2.03;;;26.80;65.40;;;;;;5209448;28;20060;-70
2021/06/21 10:30:35;;;;;;;12.93;3.00;;;26.80;65.40;;;;;;5206245;28;20060;-68
2021/06/21 10:33:07;;;;;;;9.10;2.43;;;26.80;65.30;;;;;;5206022;28;20073;-70
2021/06/21 10:35:41;;;;;;;8.75;2.60;;;26.80;65.30;;;;;;5205796;28;20433;-73
2021/06/21 10:38:16;;;;;;;11.30;2.80;;;26.80;65.30;;;;;;5209193;28;20056;-74
2021/06/21 10:41:01;;;;;;;13.32;2.67;;;26.90;65.20;;;;;;5211570;28;20059;-70
2021/06/21 10:43:46;;;;;;;6.82;2.70;;;26.90;65.20;;;;;;5205729;28;20068;-73
2021/06/21 10:46:22;;;;;;;9.27;2.55;;;26.90;65.10;;;;;;5196103;28;20049;-71
2021/06/21 10:49:06;;;;;;;7.40;2.72;;;26.90;65.10;;;;;;5207674;28;20057;-70
2021/06/21 10:51:41;;;;;;;7.05;2.22;;;26.90;65.10;;;;;;5205569;28;20547;-70
2021/06/21 10:54:25;;;;;;;8.02;2.70;;;26.90;65.00;;;;;;5210722;28;20056;-73
2021/06/21 10:56:59;;;;;;;9.30;2.47;;;26.90;64.80;;;;;;5207473;28;20059;-71
2021/06/21 10:59:31;;;;;;;9.30;2.35;;;26.90;64.80;;;;;;5191452;28;20538;-71
2021/06/21 11:02:05;;;;;;;11.10;2.67;;;26.90;64.70;;;;;;5209949;28;20531;-74
2021/06/21 11:04:38;;;;;;;7.50;2.40;;;26.90;64.80;;;;;;5213271;28;20041;-70
2021/06/21 11:07:11;;;;;;;6.93;2.40;;;26.90;64.70;;;;;;5190334;28;20529;-70
2021/06/21 11:09:49;;;;;;;7.80;2.25;;;26.90;64.70;;;;;;5225755;28;20061;-71
2021/06/21 11:12:26;;;;;;;9.50;2.38;;;26.90;64.70;;;;;;5213466;28;20049;-72
2021/06/21 11:15:10;;;;;;;7.53;2.65;;;27.00;64.70;;;;;;5209582;28;20817;-71
2021/06/21 11:17:43;;;;;;;6.57;2.35;;;27.00;64.70;;;;;;5209282;28;20406;-73
2021/06/21 11:20:28;;;;;;;9.63;2.38;;;27.00;64.60;;;;;;5204978;28;20064;-73
2021/06/21 11:23:03;;;;;;;9.68;2.83;;;27.00;64.50;;;;;;4513173;28;10000436;-71
2021/06/21 11:25:47;;;;;;;7.85;2.17;;;27.00;64.50;;;;;;5208523;28;20060;-70
2021/06/21 11:28:42;;;;;;;6.35;2.33;;;27.00;64.50;;;;;;5199541;28;20060;-70
2021/06/21 11:31:28;;;;;;;10.30;2.45;;;27.00;64.50;;;;;;5194336;28;20068;-71
2021/06/21 11:34:03;;;;;;;8.15;2.53;;;27.00;64.50;;;;;;5194156;28;20061;-72
2021/06/21 11:36:41;;;;;;;7.82;2.35;;;27.00;64.50;;;;;;5200978;28;20059;-71
2021/06/21 11:39:23;;;;;;;5.00;2.00;;;27.00;64.40;;;;;;5209277;28;20049;-69
2021/06/21 11:42:02;;;;;;;6.15;2.17;;;27.00;64.40;;;;;;5206456;28;20045;-71
2021/06/21 11:44:40;;;;;;;8.35;2.58;;;27.00;64.40;;;;;;5206508;28;20429;-71
2021/06/21 11:47:24;;;;;;;5.00;1.70;;;27.00;64.30;;;;;;5204339;28;20068;-72
2021/06/21 11:50:07;;;;;;;9.27;2.28;;;27.10;64.30;;;;;;5199224;28;20052;-72
2021/06/21 11:52:40;;;;;;;15.45;2.60;;;27.00;64.90;;;;;;5204468;28;20052;-73
2021/06/21 11:55:16;;;;;;;16.17;3.95;;;27.10;64.60;;;;;;5209524;28;20453;-72
2021/06/21 11:57:49;;;;;;;9.65;3.00;;;27.10;64.40;;;;;;5209849;28;20078;-73
2021/06/21 12:00:33;;;;;;;16.58;3.08;;;27.10;64.30;;;;;;5212305;28;20528;-74
2021/06/21 12:03:09;;;;;;;12.45;2.45;;;27.10;64.50;;;;;;5210271;28;20053;-71
2021/06/21 12:05:52;;;;;;;10.50;2.35;;;27.10;64.50;;;;;;5209372;28;20057;-71
2021/06/21 12:08:25;;;;;;;;;;;27.20;64.60;;;;;;5208723;28;20064;-73
2021/06/21 12:11:19;;;;;;;11.52;2.97;;;27.20;65.40;;;;;;5207126;28;19925;-71
2021/06/21 12:13:56;;;;;;;10.60;2.70;;;27.20;64.70;;;;;;5206203;28;20528;-72
2021/06/21 12:16:32;;;;;;;13.30;2.75;;;27.20;65.00;;;;;;5209761;28;20490;-68
2021/06/21 12:19:05;;;;;;;8.60;2.50;;;27.20;65.00;;;;;;5211477;28;21177;-72
2021/06/21 12:21:43;;;;;;;14.57;2.58;;;27.20;65.00;;;;;;5212501;28;20690;-74
2021/06/21 12:24:19;;;;;;;6.40;2.63;;;27.20;65.10;;;;;;5204444;28;20422;-73
2021/06/21 12:27:04;;;;;;;6.40;2.53;;;27.20;65.20;;;;;;5208431;28;20049;-71
2021/06/21 12:29:38;;;;;;;10.48;2.53;;;27.20;65.30;;;;;;5210798;28;20052;-73
2021/06/21 12:32:13;;;;;;;10.18;2.97;;;27.20;65.30;;;;;;5208970;28;20064;-73
2021/06/21 12:34:56;;;;;;;11.65;3.25;;;27.30;65.40;;;;;;5211570;28;20428;-71
2021/06/21 12:37:32;;;;;;;12.47;2.67;;;27.30;65.40;;;;;;5203347;28;20656;-72
2021/06/21 12:40:17;;;;;;;9.35;2.72;;;27.30;65.30;;;;;;5195152;28;20649;-74
2021/06/21 12:42:49;;;;;;;10.55;2.83;;;27.30;65.50;;;;;;5200947;28;20049;-75
2021/06/21 12:45:26;;;;;;;10.80;2.37;;;27.30;65.40;;;;;;5204006;28;20049;-73
2021/06/21 12:47:58;;;;;;;8.23;2.38;;;27.30;65.40;;;;;;5206661;28;20441;-74
2021/06/21 12:50:33;;;;;;;9.95;2.53;;;27.30;65.40;;;;;;5207996;28;20063;-76
2021/06/21 12:53:09;;;;;;;14.45;2.53;;;27.40;65.50;;;;;;5210937;28;20063;-74
2021/06/21 12:55:42;;;;;;;8.80;2.10;;;27.40;65.60;;;;;;5210693;28;20060;-76
2021/06/21 12:58:15;;;;;;;9.73;2.40;;;27.30;65.60;;;;;;5195425;28;20060;-74
2021/06/21 13:00:49;;;;;;;12.70;2.47;;;27.40;65.60;;;;;;5207045;28;20052;-74
2021/06/21 13:03:23;;;;;;;7.82;2.40;;;27.40;65.70;;;;;;5204529;28;20056;-73
2021/06/21 13:05:57;;;;;;;8.70;2.70;;;27.40;65.80;;;;;;5213435;28;20053;-75
2021/06/21 13:08:38;;;;;;;13.23;2.72;;;27.40;66.40;;;;;;5203601;28;20044;-73
2021/06/21 13:11:17;;;;;;;10.05;2.70;;;27.40;65.70;;;;;;5209958;28;20049;-73
2021/06/21 13:13:50;;;;;;;12.48;2.65;;;27.40;64.70;;;;;;5209747;28;20448;-72
2021/06/21 13:16:27;;;;;;;10.60;2.20;;;27.40;64.20;;;;;;5199059;28;22570;-73
2021/06/21 13:19:01;;;;;;;13.00;2.80;;;27.40;63.30;;;;;;5205946;28;21156;-73
2021/06/21 13:21:37;;;;;;;8.75;2.53;;;27.40;62.90;;;;;;5204894;28;20045;-73
2021/06/21 13:24:12;;;;;;;10.27;2.38;;;27.50;63.10;;;;;;5205450;28;20517;-75
2021/06/21 13:26:46;;;;;;;12.32;2.85;;;27.40;63.10;;;;;;5205670;28;21845;-72